sensor_id;sensor_type;location;lat;lon;timestamp;pressure;altitude;pressure_sealevel;temperature;humidity
73594;BME280;62064;53.406;23.500;2022-10-26T00:02:03;99587.22;;;22.45;56.05
73594;BME280;62064;53.406;23.500;2022-10-26T00:06:55;99586.38;;;22.60;56.70
73594;BME280;62064;53.406;23.500;2022-10-26T00:09:22;99589.63;;;22.62;56.94
73594;BME280;62064;53.406;23.500;2022-10-26T00:11:48;99607.41;;;22.70;57.53
73594;BME280;62064;53.406;23.500;2022-10-26T00:14:14;99615.03;;;22.78;57.50
73594;BME280;62064;53.406;23.500;2022-10-26T00:16:41;99615.84;;;22.78;57.25
73594;BME280;62064;53.406;23.500;2022-10-26T00:19:10;99614.47;;;22.81;57.48
73594;BME280;62064;53.406;23.500;2022-10-26T00:21:37;99606.00;;;22.77;57.70
73594;BME280;62064;53.406;23.500;2022-10-26T00:24:03;99611.75;;;22.81;57.19
73594;BME280;62064;53.406;23.500;2022-10-26T00:26:29;99608.16;;;22.85;57.40
73594;BME280;62064;53.406;23.500;2022-10-26T00:28:56;99619.09;;;22.85;58.09
73594;BME280;62064;53.406;23.500;2022-10-26T00:31:23;99611.47;;;22.77;58.25
73594;BME280;62064;53.406;23.500;2022-10-26T00:33:53;99597.28;;;22.70;58.11
73594;BME280;62064;53.406;23.500;2022-10-26T00:36:21;99615.81;;;22.83;58.07
73594;BME280;62064;53.406;23.500;2022-10-26T00:38:49;99628.16;;;22.81;57.99
73594;BME280;62064;53.406;23.500;2022-10-26T00:41:17;99626.50;;;22.80;58.33
73594;BME280;62064;53.406;23.500;2022-10-26T00:43:44;99615.31;;;22.71;58.94
73594;BME280;62064;53.406;23.500;2022-10-26T00:46:23;99621.59;;;22.77;58.16
73594;BME280;62064;53.406;23.500;2022-10-26T00:49:03;99622.97;;;22.74;58.30
73594;BME280;62064;53.406;23.500;2022-10-26T00:51:30;99638.25;;;22.80;58.10
73594;BME280;62064;53.406;23.500;2022-10-26T00:54:03;99625.69;;;22.74;58.35
73594;BME280;62064;53.406;23.500;2022-10-26T00:56:30;99628.72;;;22.73;58.63
73594;BME280;62064;53.406;23.500;2022-10-26T00:59:04;99639.63;;;22.78;58.14
73594;BME280;62064;53.406;23.500;2022-10-26T01:01:34;99614.22;;;22.62;58.73
73594;BME280;62064;53.406;23.500;2022-10-26T01:04:01;99630.34;;;22.74;58.91
73594;BME280;62064;53.406;23.500;2022-10-26T01:06:29;99628.16;;;22.71;58.82
73594;BME280;62064;53.406;23.500;2022-10-26T01:08:56;99616.13;;;22.67;58.97
73594;BME280;62064;53.406;23.500;2022-10-26T01:11:22;99627.34;;;22.70;59.04
73594;BME280;62064;53.406;23.500;2022-10-26T01:13:50;99620.78;;;22.66;58.71
73594;BME280;62064;53.406;23.500;2022-10-26T01:24:43;99617.50;;;22.69;59.34
73594;BME280;62064;53.406;23.500;2022-10-26T01:30:07;99605.25;;;22.52;59.31
73594;BME280;62064;53.406;23.500;2022-10-26T01:32:58;99621.34;;;22.68;59.71
73594;BME280;62064;53.406;23.500;2022-10-26T01:38:01;99631.69;;;22.66;59.85
73594;BME280;62064;53.406;23.500;2022-10-26T01:40:44;99630.06;;;22.65;59.35
73594;BME280;62064;53.406;23.500;2022-10-26T01:43:13;99612.63;;;22.56;60.00
73594;BME280;62064;53.406;23.500;2022-10-26T01:45:42;99630.63;;;22.62;59.48
73594;BME280;62064;53.406;23.500;2022-10-26T01:48:12;99631.44;;;22.63;59.63
73594;BME280;62064;53.406;23.500;2022-10-26T01:50:41;99623.81;;;22.55;59.09
73594;BME280;62064;53.406;23.500;2022-10-26T01:53:12;99634.47;;;22.61;59.68
73594;BME280;62064;53.406;23.500;2022-10-26T01:55:52;99632.00;;;22.60;59.34
73594;BME280;62064;53.406;23.500;2022-10-26T01:58:36;99642.09;;;22.59;59.64
73594;BME280;62064;53.406;23.500;2022-10-26T02:03:46;99641.59;;;22.57;59.53
73594;BME280;62064;53.406;23.500;2022-10-26T02:06:35;99621.38;;;22.43;59.60
73594;BME280;62064;53.406;23.500;2022-10-26T02:11:39;99633.91;;;22.54;59.59
73594;BME280;62064;53.406;23.500;2022-10-26T02:14:38;99647.88;;;22.53;59.96
73594;BME280;62064;53.406;23.500;2022-10-26T02:17:28;99641.59;;;22.52;59.63
73594;BME280;62064;53.406;23.500;2022-10-26T02:19:59;99639.94;;;22.51;59.64
73594;BME280;62064;53.406;23.500;2022-10-26T02:22:44;99641.03;;;22.50;59.68
73594;BME280;62064;53.406;23.500;2022-10-26T02:25:25;99635.88;;;22.48;59.86
73594;BME280;62064;53.406;23.500;2022-10-26T02:27:59;99639.69;;;22.47;60.08
73594;BME280;62064;53.406;23.500;2022-10-26T02:30:27;99629.06;;;22.41;60.06
73594;BME280;62064;53.406;23.500;2022-10-26T02:32:55;99635.31;;;22.46;59.86
73594;BME280;62064;53.406;23.500;2022-10-26T02:35:26;99626.59;;;22.39;59.95
73594;BME280;62064;53.406;23.500;2022-10-26T02:37:56;99627.41;;;22.40;60.25
73594;BME280;62064;53.406;23.500;2022-10-26T02:40:26;99642.97;;;22.44;59.76
73594;BME280;62064;53.406;23.500;2022-10-26T02:42:55;99631.22;;;22.44;60.06
73594;BME280;62064;53.406;23.500;2022-10-26T02:45:26;99628.75;;;22.37;59.88
73594;BME280;62064;53.406;23.500;2022-10-26T02:47:56;99624.94;;;22.38;59.87
73594;BME280;62064;53.406;23.500;2022-10-26T02:50:29;99633.44;;;22.37;60.30
73594;BME280;62064;53.406;23.500;2022-10-26T02:53:12;99632.59;;;22.36;60.45
73594;BME280;62064;53.406;23.500;2022-10-26T02:55:49;99626.88;;;22.33;60.05
73594;BME280;62064;53.406;23.500;2022-10-26T02:58:26;99632.59;;;22.31;60.12
73594;BME280;62064;53.406;23.500;2022-10-26T03:00:53;99644.06;;;22.38;60.23
73594;BME280;62064;53.406;23.500;2022-10-26T03:03:20;99631.78;;;22.31;60.61
73594;BME280;62064;53.406;23.500;2022-10-26T03:05:48;99645.44;;;22.36;60.54
73594;BME280;62064;53.406;23.500;2022-10-26T03:08:14;99639.97;;;22.31;60.68
73594;BME280;62064;53.406;23.500;2022-10-26T03:10:42;99645.19;;;22.32;60.09
73594;BME280;62064;53.406;23.500;2022-10-26T03:13:10;99655.81;;;22.34;60.74
73594;BME280;62064;53.406;23.500;2022-10-26T03:15:37;99656.38;;;22.31;60.42
73594;BME280;62064;53.406;23.500;2022-10-26T03:18:03;99668.38;;;22.35;60.96
73594;BME280;62064;53.406;23.500;2022-10-26T03:20:30;99671.94;;;22.35;60.89
73594;BME280;62064;53.406;23.500;2022-10-26T03:22:57;99661.28;;;22.34;60.51
73594;BME280;62064;53.406;23.500;2022-10-26T03:25:24;99656.38;;;22.31;60.82
73594;BME280;62064;53.406;23.500;2022-10-26T03:27:58;99665.38;;;22.31;60.90
73594;BME280;62064;53.406;23.500;2022-10-26T03:30:24;99666.19;;;22.27;60.90
73594;BME280;62064;53.406;23.500;2022-10-26T03:32:51;99661.28;;;22.24;60.55
73594;BME280;62064;53.406;23.500;2022-10-26T03:35:17;99677.69;;;22.29;60.70
73594;BME280;62064;53.406;23.500;2022-10-26T03:37:44;99665.38;;;22.26;60.27
73594;BME280;62064;53.406;23.500;2022-10-26T03:40:10;99666.50;;;22.20;60.68
73594;BME280;62064;53.406;23.500;2022-10-26T03:42:37;99669.47;;;22.19;60.91
73594;BME280;62064;53.406;23.500;2022-10-26T03:45:05;99664.84;;;22.19;60.83
73594;BME280;62064;53.406;23.500;2022-10-26T03:47:41;99670.31;;;22.19;60.73
73594;BME280;62064;53.406;23.500;2022-10-26T03:50:10;99678.78;;;22.23;60.84
73594;BME280;62064;53.406;23.500;2022-10-26T03:52:37;99672.78;;;22.21;60.76
73594;BME280;62064;53.406;23.500;2022-10-26T03:55:04;99668.66;;;22.18;60.61
73594;BME280;62064;53.406;23.500;2022-10-26T03:57:30;99679.06;;;22.21;60.63
73594;BME280;62064;53.406;23.500;2022-10-26T03:59:56;99676.03;;;22.18;60.67
73594;BME280;62064;53.406;23.500;2022-10-26T04:02:22;99680.41;;;22.19;60.78
73594;BME280;62064;53.406;23.500;2022-10-26T04:04:48;99671.94;;;22.10;61.24
73594;BME280;62064;53.406;23.500;2022-10-26T04:07:15;99677.66;;;22.14;60.70
73594;BME280;62064;53.406;23.500;2022-10-26T04:09:41;99680.13;;;22.15;60.69
73594;BME280;62064;53.406;23.500;2022-10-26T04:12:07;99682.84;;;22.10;61.05
73594;BME280;62064;53.406;23.500;2022-10-26T04:14:33;99694.88;;;22.14;60.57
73594;BME280;62064;53.406;23.500;2022-10-26T04:17:03;99682.84;;;22.10;60.94
73594;BME280;62064;53.406;23.500;2022-10-26T04:19:29;99677.94;;;22.07;61.35
73594;BME280;62064;53.406;23.500;2022-10-26T04:21:55;99688.59;;;22.14;60.93
73594;BME280;62064;53.406;23.500;2022-10-26T04:24:21;99679.59;;;22.08;61.17
73594;BME280;62064;53.406;23.500;2022-10-26T04:26:47;99690.78;;;22.12;61.41
73594;BME280;62064;53.406;23.500;2022-10-26T04:29:13;99680.97;;;22.00;61.16
73594;BME280;62064;53.406;23.500;2022-10-26T04:31:39;99686.16;;;22.07;61.69
73594;BME280;62064;53.406;23.500;2022-10-26T04:34:06;99687.25;;;22.11;61.30
73594;BME280;62064;53.406;23.500;2022-10-26T04:36:33;99686.72;;;22.09;61.00
73594;BME280;62064;53.406;23.500;2022-10-26T04:39:00;99677.41;;;22.00;60.94
73594;BME280;62064;53.406;23.500;2022-10-26T04:41:26;99686.97;;;22.08;61.40
73594;BME280;62064;53.406;23.500;2022-10-26T04:43:52;99676.88;;;22.03;61.26
73594;BME280;62064;53.406;23.500;2022-10-26T04:46:18;99689.69;;;22.08;61.12
73594;BME280;62064;53.406;23.500;2022-10-26T04:48:47;99681.50;;;22.02;60.81
73594;BME280;62064;53.406;23.500;2022-10-26T04:51:13;99673.84;;;21.94;60.96
73594;BME280;62064;53.406;23.500;2022-10-26T04:53:39;99682.31;;;22.03;61.07
73594;BME280;62064;53.406;23.500;2022-10-26T04:56:06;99685.63;;;22.05;61.21
73594;BME280;62064;53.406;23.500;2022-10-26T04:58:31;99684.22;;;22.02;61.32
73594;BME280;62064;53.406;23.500;2022-10-26T05:01:00;99689.44;;;22.04;61.30
73594;BME280;62064;53.406;23.500;2022-10-26T05:03:26;99686.69;;;21.99;61.34
73594;BME280;62064;53.406;23.500;2022-10-26T05:05:52;99685.88;;;21.93;61.61
73594;BME280;62064;53.406;23.500;2022-10-26T05:08:18;99699.81;;;21.97;61.49
73594;BME280;62064;53.406;23.500;2022-10-26T05:10:48;99705.53;;;22.00;61.40
73594;BME280;62064;53.406;23.500;2022-10-26T05:13:15;99712.63;;;22.01;61.04
73594;BME280;62064;53.406;23.500;2022-10-26T05:15:42;99707.69;;;21.98;61.58
73594;BME280;62064;53.406;23.500;2022-10-26T05:18:08;99717.53;;;21.99;61.02
73594;BME280;62064;53.406;23.500;2022-10-26T05:20:35;99713.72;;;21.95;61.27
73594;BME280;62064;53.406;23.500;2022-10-26T05:23:02;99726.56;;;22.00;61.60
73594;BME280;62064;53.406;23.500;2022-10-26T05:25:31;99722.47;;;21.97;61.29
73594;BME280;62064;53.406;23.500;2022-10-26T05:28:05;99719.75;;;21.97;61.45
73594;BME280;62064;53.406;23.500;2022-10-26T05:30:33;99718.34;;;21.95;61.66
73594;BME280;62064;53.406;23.500;2022-10-26T05:33:00;99714.78;;;21.94;61.70
73594;BME280;62064;53.406;23.500;2022-10-26T05:35:30;99730.09;;;21.95;61.39
73594;BME280;62064;53.406;23.500;2022-10-26T05:37:57;99722.97;;;21.89;61.47
73594;BME280;62064;53.406;23.500;2022-10-26T05:40:23;99739.38;;;21.94;61.08
73594;BME280;62064;53.406;23.500;2022-10-26T05:42:49;99744.00;;;21.94;61.39
73594;BME280;62064;53.406;23.500;2022-10-26T05:45:16;99745.59;;;21.90;61.62
73594;BME280;62064;53.406;23.500;2022-10-26T05:47:45;99746.72;;;21.89;61.66
73594;BME280;62064;53.406;23.500;2022-10-26T05:50:12;99748.31;;;21.90;61.07
73594;BME280;62064;53.406;23.500;2022-10-26T05:52:42;99765.03;;;21.93;61.73
73594;BME280;62064;53.406;23.500;2022-10-26T05:55:10;99755.16;;;21.87;61.07
73594;BME280;62064;53.406;23.500;2022-10-26T05:57:37;99755.72;;;21.89;61.20
73594;BME280;62064;53.406;23.500;2022-10-26T06:00:07;99763.63;;;21.91;61.68
73594;BME280;62064;53.406;23.500;2022-10-26T06:05:32;99734.09;;;21.78;61.32
73594;BME280;62064;53.406;23.500;2022-10-26T06:08:00;99730.03;;;21.75;61.50
73594;BME280;62064;53.406;23.500;2022-10-26T06:10:27;99748.88;;;21.87;61.63
73594;BME280;62064;53.406;23.500;2022-10-26T06:12:53;99756.81;;;21.88;61.80
73594;BME280;62064;53.406;23.500;2022-10-26T06:15:20;99750.78;;;21.81;61.45
73594;BME280;62064;53.406;23.500;2022-10-26T06:26:00;99770.44;;;21.88;61.82
73594;BME280;62064;53.406;23.500;2022-10-26T06:31:16;99760.06;;;21.80;61.43
73594;BME280;62064;53.406;23.500;2022-10-26T06:33:42;99774.53;;;21.86;61.59
73594;BME280;62064;53.406;23.500;2022-10-26T06:38:39;99765.50;;;21.80;61.85
73594;BME280;62064;53.406;23.500;2022-10-26T06:41:11;99760.59;;;21.72;61.33
73594;BME280;62064;53.406;23.500;2022-10-26T06:43:40;99783.00;;;21.84;61.23
73594;BME280;62064;53.406;23.500;2022-10-26T06:46:35;99790.91;;;21.86;61.20
73594;BME280;62064;53.406;23.500;2022-10-26T06:51:41;99780.50;;;21.78;61.37
73594;BME280;62064;53.406;23.500;2022-10-26T06:54:19;99782.97;;;21.79;61.66
73594;BME280;62064;53.406;23.500;2022-10-26T06:56:48;99795.00;;;21.83;61.53
73594;BME280;62064;53.406;23.500;2022-10-26T06:59:28;99799.09;;;21.81;61.93
73594;BME280;62064;53.406;23.500;2022-10-26T07:01:56;99783.75;;;21.70;61.76
73594;BME280;62064;53.406;23.500;2022-10-26T07:04:22;99787.31;;;21.70;61.58
73594;BME280;62064;53.406;23.500;2022-10-26T07:06:48;99791.97;;;21.75;61.36
73594;BME280;62064;53.406;23.500;2022-10-26T07:09:14;99796.09;;;21.77;61.41
73594;BME280;62064;53.406;23.500;2022-10-26T07:11:41;99803.72;;;21.80;61.55
73594;BME280;62064;53.406;23.500;2022-10-26T07:14:06;99806.72;;;21.84;61.54
73594;BME280;62064;53.406;23.500;2022-10-26T07:16:33;99784.03;;;21.68;61.71
73594;BME280;62064;53.406;23.500;2022-10-26T07:19:00;99802.06;;;21.79;61.27
73594;BME280;62064;53.406;23.500;2022-10-26T07:21:26;99803.44;;;21.77;61.61
73594;BME280;62064;53.406;23.500;2022-10-26T07:23:52;99802.63;;;21.76;61.31
73594;BME280;62064;53.406;23.500;2022-10-26T07:26:22;99813.00;;;21.84;61.22
73594;BME280;62064;53.406;23.500;2022-10-26T07:28:50;99801.00;;;21.80;61.52
73594;BME280;62064;53.406;23.500;2022-10-26T07:31:17;99800.44;;;21.78;61.63
73594;BME280;62064;53.406;23.500;2022-10-26T07:33:43;99794.97;;;21.78;61.33
73594;BME280;62064;53.406;23.500;2022-10-26T07:36:10;99816.56;;;21.85;61.83
73594;BME280;62064;53.406;23.500;2022-10-26T07:38:37;99810.84;;;21.81;61.26
73594;BME280;62064;53.406;23.500;2022-10-26T07:41:04;99810.53;;;21.83;61.12
73594;BME280;62064;53.406;23.500;2022-10-26T07:43:30;99806.44;;;21.75;61.10
73594;BME280;62064;53.406;23.500;2022-10-26T07:45:57;99808.91;;;21.77;61.71
73594;BME280;62064;53.406;23.500;2022-10-26T07:48:23;99787.81;;;21.62;61.77
73594;BME280;62064;53.406;23.500;2022-10-26T07:50:49;99820.38;;;21.84;61.25
73594;BME280;62064;53.406;23.500;2022-10-26T07:53:15;99806.44;;;21.75;61.17
73594;BME280;62064;53.406;23.500;2022-10-26T07:55:42;99811.09;;;21.80;61.73
73594;BME280;62064;53.406;23.500;2022-10-26T07:58:08;99819.03;;;21.81;61.36
73594;BME280;62064;53.406;23.500;2022-10-26T08:00:34;99817.91;;;21.77;61.35
73594;BME280;62064;53.406;23.500;2022-10-26T08:03:02;99819.53;;;21.78;61.54
73594;BME280;62064;53.406;23.500;2022-10-26T08:05:28;99819.56;;;21.83;61.26
73594;BME280;62064;53.406;23.500;2022-10-26T08:07:54;99808.06;;;21.76;61.49
73594;BME280;62064;53.406;23.500;2022-10-26T08:10:21;99819.81;;;21.77;61.39
73594;BME280;62064;53.406;23.500;2022-10-26T08:12:46;99819.31;;;21.85;61.33
73594;BME280;62064;53.406;23.500;2022-10-26T08:15:13;99817.09;;;21.77;61.45
73594;BME280;62064;53.406;23.500;2022-10-26T08:17:39;99815.19;;;21.82;61.58
73594;BME280;62064;53.406;23.500;2022-10-26T08:20:06;99813.25;;;21.78;61.12
73594;BME280;62064;53.406;23.500;2022-10-26T08:22:32;99823.91;;;21.79;61.06
73594;BME280;62064;53.406;23.500;2022-10-26T08:24:58;99823.66;;;21.81;61.19
73594;BME280;62064;53.406;23.500;2022-10-26T08:27:24;99840.56;;;21.83;61.77
73594;BME280;62064;53.406;23.500;2022-10-26T08:29:51;99847.69;;;21.84;61.39
73594;BME280;62064;53.406;23.500;2022-10-26T08:32:17;99841.38;;;21.83;61.21
73594;BME280;62064;53.406;23.500;2022-10-26T08:34:43;99827.72;;;21.78;61.46
73594;BME280;62064;53.406;23.500;2022-10-26T08:37:09;99835.91;;;21.78;61.30
73594;BME280;62064;53.406;23.500;2022-10-26T08:39:35;99835.41;;;21.81;61.40
73594;BME280;62064;53.406;23.500;2022-10-26T08:42:18;99834.56;;;21.81;61.43
73594;BME280;62064;53.406;23.500;2022-10-26T08:44:50;99830.44;;;21.78;61.47
73594;BME280;62064;53.406;23.500;2022-10-26T08:47:27;99832.66;;;21.81;61.51
73594;BME280;62064;53.406;23.500;2022-10-26T08:50:09;99835.66;;;21.80;61.08
73594;BME280;62064;53.406;23.500;2022-10-26T08:53:21;99856.97;;;21.88;61.30
73594;BME280;62064;53.406;23.500;2022-10-26T08:56:17;99856.72;;;21.89;61.87
73594;BME280;62064;53.406;23.500;2022-10-26T08:58:47;99862.16;;;21.89;61.28
73594;BME280;62064;53.406;23.500;2022-10-26T09:01:18;99858.63;;;21.89;61.73
73594;BME280;62064;53.406;23.500;2022-10-26T09:03:44;99870.34;;;21.89;62.14
73594;BME280;62064;53.406;23.500;2022-10-26T09:07:04;99873.94;;;21.95;61.77
73594;BME280;62064;53.406;23.500;2022-10-26T09:09:34;99886.25;;;21.97;61.57
73594;BME280;62064;53.406;23.500;2022-10-26T09:25:37;99879.13;;;21.91;60.54
73594;BME280;62064;53.406;23.500;2022-10-26T09:28:04;99892.22;;;21.94;61.20
73594;BME280;62064;53.406;23.500;2022-10-26T09:30:35;99887.59;;;21.95;60.93
73594;BME280;62064;53.406;23.500;2022-10-26T09:33:30;99898.53;;;22.00;60.93
73594;BME280;62064;53.406;23.500;2022-10-26T09:36:07;99897.38;;;21.91;61.04
73594;BME280;62064;53.406;23.500;2022-10-26T09:41:36;99908.66;;;22.05;60.85
73594;BME280;62064;53.406;23.500;2022-10-26T09:44:24;99915.22;;;22.09;60.63
73594;BME280;62064;53.406;23.500;2022-10-26T09:47:20;99915.47;;;22.07;60.95
73594;BME280;62064;53.406;23.500;2022-10-26T09:49:57;99902.91;;;22.06;60.66
73594;BME280;62064;53.406;23.500;2022-10-26T09:52:25;99893.09;;;22.05;60.43
73594;BME280;62064;53.406;23.500;2022-10-26T09:54:51;99904.56;;;22.07;60.74
73594;BME280;62064;53.406;23.500;2022-10-26T09:57:18;99893.91;;;22.06;60.36
73594;BME280;62064;53.406;23.500;2022-10-26T09:59:46;99903.78;;;22.17;60.54
73594;BME280;62064;53.406;23.500;2022-10-26T10:02:36;99891.75;;;22.18;60.71
73594;BME280;62064;53.406;23.500;2022-10-26T10:05:26;99902.41;;;22.19;60.07
73594;BME280;62064;53.406;23.500;2022-10-26T10:10:55;99902.97;;;22.16;60.40
73594;BME280;62064;53.406;23.500;2022-10-26T10:13:27;99893.41;;;22.19;60.45
73594;BME280;62064;53.406;23.500;2022-10-26T10:16:03;99902.16;;;22.21;60.26
73594;BME280;62064;53.406;23.500;2022-10-26T10:18:30;99895.88;;;22.20;60.46
73594;BME280;62064;53.406;23.500;2022-10-26T10:20:58;99902.72;;;22.23;59.92
73594;BME280;62064;53.406;23.500;2022-10-26T10:23:28;99902.72;;;22.23;60.17
73594;BME280;62064;53.406;23.500;2022-10-26T10:26:01;99902.16;;;22.21;60.44
73594;BME280;62064;53.406;23.500;2022-10-26T10:28:28;99898.34;;;22.17;60.39
73594;BME280;62064;53.406;23.500;2022-10-26T10:30:57;99908.16;;;22.23;59.87
73594;BME280;62064;53.406;23.500;2022-10-26T10:33:40;99904.03;;;22.15;60.33
73594;BME280;62064;53.406;23.500;2022-10-26T10:36:09;99919.38;;;22.26;60.30
73594;BME280;62064;53.406;23.500;2022-10-26T10:38:39;99921.28;;;22.21;59.54
73594;BME280;62064;53.406;23.500;2022-10-26T10:41:15;99926.19;;;22.24;60.14
73594;BME280;62064;53.406;23.500;2022-10-26T10:43:52;99921.00;;;22.22;60.19
73594;BME280;62064;53.406;23.500;2022-10-26T10:46:22;99906.78;;;22.15;60.73
73594;BME280;62064;53.406;23.500;2022-10-26T10:48:54;99924.00;;;22.26;60.48
73594;BME280;62064;53.406;23.500;2022-10-26T10:51:35;99941.50;;;22.25;60.53
73594;BME280;62064;53.406;23.500;2022-10-26T10:54:06;99936.59;;;22.27;60.35
73594;BME280;62064;53.406;23.500;2022-10-26T10:56:46;99946.72;;;22.31;60.94
73594;BME280;62064;53.406;23.500;2022-10-26T11:02:33;99938.25;;;22.33;60.97
73594;BME280;62064;53.406;23.500;2022-10-26T11:08:20;99925.63;;;22.22;60.78
73594;BME280;62064;53.406;23.500;2022-10-26T11:10:58;99948.06;;;22.34;60.70
73594;BME280;62064;53.406;23.500;2022-10-26T11:16:30;99956.81;;;22.31;60.64
73594;BME280;62064;53.406;23.500;2022-10-26T11:19:11;99952.44;;;22.30;60.50
73594;BME280;62064;53.406;23.500;2022-10-26T11:21:47;99940.91;;;22.18;60.38
73594;BME280;62064;53.406;23.500;2022-10-26T11:27:01;99961.72;;;22.24;58.42
73594;BME280;62064;53.406;23.500;2022-10-26T11:32:19;99959.47;;;22.11;59.17
73594;BME280;62064;53.406;23.500;2022-10-26T11:43:04;99975.88;;;22.16;59.00
73594;BME280;62064;53.406;23.500;2022-10-26T11:45:38;99963.84;;;22.12;59.46
73594;BME280;62064;53.406;23.500;2022-10-26T11:48:20;99970.13;;;22.12;59.02
73594;BME280;62064;53.406;23.500;2022-10-26T11:50:53;99949.59;;;21.99;58.50
73594;BME280;62064;53.406;23.500;2022-10-26T11:53:37;99965.72;;;22.01;58.41
73594;BME280;62064;53.406;23.500;2022-10-26T11:56:12;99958.84;;;21.93;59.09
73594;BME280;62064;53.406;23.500;2022-10-26T11:58:40;99945.69;;;21.90;59.05
73594;BME280;62064;53.406;23.500;2022-10-26T12:01:09;99967.63;;;22.06;58.53
73594;BME280;62064;53.406;23.500;2022-10-26T12:03:41;99961.59;;;21.93;58.34
73594;BME280;62064;53.406;23.500;2022-10-26T12:06:12;99972.53;;;22.04;58.48
73594;BME280;62064;53.406;23.500;2022-10-26T12:08:42;99951.97;;;21.91;58.85
73594;BME280;62064;53.406;23.500;2022-10-26T12:14:14;99971.19;;;22.01;58.15
73594;BME280;62064;53.406;23.500;2022-10-26T12:17:25;99980.19;;;22.07;58.37
73594;BME280;62064;53.406;23.500;2022-10-26T12:20:05;99975.22;;;21.98;58.38
73594;BME280;62064;53.406;23.500;2022-10-26T12:22:36;99981.81;;;22.02;58.67
73594;BME280;62064;53.406;23.500;2022-10-26T12:30:23;99991.91;;;22.02;58.13
73594;BME280;62064;53.406;23.500;2022-10-26T12:32:55;99989.41;;;21.95;58.70
73594;BME280;62064;53.406;23.500;2022-10-26T12:35:41;100001.19;;;22.01;58.36
73594;BME280;62064;53.406;23.500;2022-10-26T12:40:47;99989.13;;;21.92;58.48
73594;BME280;62064;53.406;23.500;2022-10-26T12:48:50;99992.16;;;21.95;58.44
73594;BME280;62064;53.406;23.500;2022-10-26T12:56:57;99978.75;;;21.94;58.62
73594;BME280;62064;53.406;23.500;2022-10-26T13:00:21;99985.31;;;21.93;58.43
73594;BME280;62064;53.406;23.500;2022-10-26T13:05:34;100005.25;;;21.98;58.68
73594;BME280;62064;53.406;23.500;2022-10-26T13:08:07;99996.72;;;21.90;58.61
73594;BME280;62064;53.406;23.500;2022-10-26T13:10:37;99998.97;;;21.93;58.38
73594;BME280;62064;53.406;23.500;2022-10-26T13:13:06;99992.91;;;21.91;58.95
73594;BME280;62064;53.406;23.500;2022-10-26T13:21:09;99996.72;;;21.90;58.42
73594;BME280;62064;53.406;23.500;2022-10-26T13:23:48;100006.88;;;21.94;59.09
73594;BME280;62064;53.406;23.500;2022-10-26T13:26:31;99988.47;;;21.80;58.96
73594;BME280;62064;53.406;23.500;2022-10-26T13:29:03;99995.88;;;21.84;58.96
73594;BME280;62064;53.406;23.500;2022-10-26T13:36:37;99983.56;;;21.77;58.71
73594;BME280;62064;53.406;23.500;2022-10-26T13:39:44;99989.31;;;21.80;58.36
73594;BME280;62064;53.406;23.500;2022-10-26T13:42:20;100021.06;;;21.91;58.57
73594;BME280;62064;53.406;23.500;2022-10-26T13:44:54;100000.75;;;21.82;58.69
73594;BME280;62064;53.406;23.500;2022-10-26T13:50:19;100016.66;;;21.90;58.60
73594;BME280;62064;53.406;23.500;2022-10-26T13:52:50;100010.59;;;21.83;58.83
73594;BME280;62064;53.406;23.500;2022-10-26T13:58:30;99995.84;;;21.79;58.80
73594;BME280;62064;53.406;23.500;2022-10-26T14:03:37;100002.38;;;21.78;58.64
73594;BME280;62064;53.406;23.500;2022-10-26T14:06:30;100028.94;;;21.88;58.55
73594;BME280;62064;53.406;23.500;2022-10-26T14:09:03;100018.25;;;21.81;58.83
73594;BME280;62064;53.406;23.500;2022-10-26T14:14:25;100006.72;;;21.74;58.60
73594;BME280;62064;53.406;23.500;2022-10-26T14:16:54;100000.97;;;21.71;59.06
73594;BME280;62064;53.406;23.500;2022-10-26T14:19:25;100024.81;;;21.85;58.60
73594;BME280;62064;53.406;23.500;2022-10-26T14:21:57;100025.31;;;21.82;58.40
73594;BME280;62064;53.406;23.500;2022-10-26T14:26:53;100030.78;;;21.82;58.92
73594;BME280;62064;53.406;23.500;2022-10-26T14:29:22;100029.72;;;21.83;58.50
73594;BME280;62064;53.406;23.500;2022-10-26T14:31:51;100018.47;;;21.75;58.88
73594;BME280;62064;53.406;23.500;2022-10-26T14:34:20;100039.25;;;21.81;58.73
73594;BME280;62064;53.406;23.500;2022-10-26T14:39:29;100050.44;;;21.79;58.57
73594;BME280;62064;53.406;23.500;2022-10-26T14:42:22;100041.38;;;21.74;58.15
73594;BME280;62064;53.406;23.500;2022-10-26T14:44:51;100043.03;;;21.75;58.31
73594;BME280;62064;53.406;23.500;2022-10-26T14:47:34;100056.13;;;21.78;58.37
73594;BME280;62064;53.406;23.500;2022-10-26T14:50:02;100060.81;;;21.77;58.17
73594;BME280;62064;53.406;23.500;2022-10-26T14:52:34;100052.56;;;21.72;58.17
73594;BME280;62064;53.406;23.500;2022-10-26T14:55:12;100036.44;;;21.66;58.28
73594;BME280;62064;53.406;23.500;2022-10-26T14:57:41;100044.38;;;21.72;58.62
73594;BME280;62064;53.406;23.500;2022-10-26T15:00:14;100058.03;;;21.72;58.27
73594;BME280;62064;53.406;23.500;2022-10-26T15:02:46;100051.75;;;21.72;58.27
73594;BME280;62064;53.406;23.500;2022-10-26T15:07:52;100047.34;;;21.66;58.58
73594;BME280;62064;53.406;23.500;2022-10-26T15:15:33;100049.50;;;21.64;58.62
73594;BME280;62064;53.406;23.500;2022-10-26T15:18:00;100061.28;;;21.69;58.60
73594;BME280;62064;53.406;23.500;2022-10-26T15:20:30;100061.47;;;21.63;58.32
73594;BME280;62064;53.406;23.500;2022-10-26T15:22:59;100076.00;;;21.68;58.61
73594;BME280;62064;53.406;23.500;2022-10-26T15:25:32;100063.91;;;21.59;58.46
73594;BME280;62064;53.406;23.500;2022-10-26T15:28:38;100089.66;;;21.68;58.33
73594;BME280;62064;53.406;23.500;2022-10-26T15:36:36;100079.22;;;21.60;58.78
73594;BME280;62064;53.406;23.500;2022-10-26T15:39:02;100084.72;;;21.65;59.21